Time;durP1;ratioP1;P1;durP2;ratioP2;P2;SDS_P1;SDS_P2;PMS_P1;PMS_P2;Temp;Humidity;BMP_temperature;BMP_pressure;BME280_temperature;BME280_humidity;BME280_pressure;Samples;Min_cycle;Max_cycle;Signal;HPM_P1;HPM_P2
2021/12/24 00:01:15;;;;;;;47.38;33.60;;;22.30;83.90;;;;;;1844574;76;21637;-80
2021/12/24 00:03:47;;;;;;;51.10;34.83;;;22.30;84.00;;;;;;1868823;76;21583;-79
2021/12/24 00:06:17;;;;;;;52.53;36.00;;;22.30;84.00;;;;;;1846708;76;21155;-79
2021/12/24 00:08:49;;;;;;;53.38;35.38;;;22.40;84.40;;;;;;1889098;75;21155;-80
2021/12/24 00:11:22;;;;;;;48.30;34.05;;;22.40;84.10;;;;;;1872236;75;21127;-79
2021/12/24 00:14:00;;;;;;;54.27;34.55;;;22.50;84.00;;;;;;1853556;76;21630;-80
2021/12/24 00:16:52;;;;;;;52.38;36.28;;;22.60;82.60;;;;;;1873470;76;21140;-80
2021/12/24 00:19:23;;;;;;;65.75;40.45;;;22.60;83.70;;;;;;1872737;76;21135;-80
2021/12/24 00:36:52;;;;;;;46.55;32.55;;;22.80;84.00;;;;;;1883609;75;21198;-80
2021/12/24 00:39:24;;;;;;;43.58;31.02;;;22.90;84.40;;;;;;1883553;75;21073;-80
2021/12/24 00:41:55;;;;;;;46.73;34.05;;;22.90;84.40;;;;;;1876591;75;21130;-80
2021/12/24 00:44:26;;;;;;;45.03;32.00;;;22.90;84.80;;;;;;1878813;76;22336;-80
2021/12/24 00:46:57;;;;;;;48.33;32.75;;;22.90;84.50;;;;;;1877073;76;21517;-80
2021/12/24 00:49:28;;;;;;;46.10;33.60;;;22.90;84.30;;;;;;1886178;75;21115;-71
2021/12/24 00:57:04;;;;;;;48.02;32.73;;;23.00;85.30;;;;;;1885263;75;21159;-73
2021/12/24 00:59:34;;;;;;;52.25;34.53;;;22.90;85.30;;;;;;1872880;75;21217;-73
2021/12/24 01:02:08;;;;;;;46.68;32.85;;;23.00;85.50;;;;;;1865899;76;21693;-72
2021/12/24 01:04:39;;;;;;;50.58;32.95;;;23.00;85.30;;;;;;1878491;75;21139;-72
2021/12/24 01:07:10;;;;;;;47.80;32.95;;;23.00;85.70;;;;;;1873011;75;21138;-72
2021/12/24 01:09:40;;;;;;;47.45;33.85;;;23.00;85.50;;;;;;1874723;75;21135;-72
2021/12/24 01:12:11;;;;;;;48.20;34.00;;;23.00;85.40;;;;;;1862888;75;21166;-73
2021/12/24 01:14:46;;;;;;;44.80;34.05;;;23.10;85.50;;;;;;1867926;76;21876;-71
2021/12/24 01:17:30;;;;;;;54.45;34.48;;;23.10;85.50;;;;;;1834617;76;21202;-71
2021/12/24 01:19:50;;;;;;;51.28;35.10;;;23.10;85.30;;;;;;1845586;76;21250;-72
2021/12/24 01:25:40;;;;;;;47.40;34.73;;;23.10;85.40;;;;;;1867531;75;21149;-71
2021/12/24 01:42:48;;;;;;;49.35;35.23;;;23.40;85.20;;;;;;1852050;75;21465;-71
2021/12/24 01:45:11;;;;;;;46.48;33.48;;;23.50;85.10;;;;;;1831607;76;21259;-71
2021/12/24 01:47:42;;;;;;;46.33;33.63;;;23.50;84.80;;;;;;1857691;77;21586;-72
2021/12/24 01:50:14;;;;;;;44.70;32.03;;;23.60;84.80;;;;;;1853033;75;21696;-71
2021/12/24 01:52:48;;;;;;;52.65;33.58;;;23.60;84.80;;;;;;1866469;75;21129;-70
2021/12/24 01:55:20;;;;;;;47.95;34.48;;;23.70;85.10;;;;;;1870586;75;21124;-71
2021/12/24 01:57:51;;;;;;;50.95;33.65;;;23.70;84.80;;;;;;1858081;76;21612;-71
2021/12/24 02:00:24;;;;;;;49.65;34.50;;;23.80;84.60;;;;;;1860563;76;21528;-71
2021/12/24 02:02:55;;;;;;;45.35;34.90;;;23.90;84.40;;;;;;1866320;75;21157;-71
2021/12/24 02:05:27;;;;;;;44.77;33.35;;;23.90;84.30;;;;;;1859558;75;21201;-71
2021/12/24 02:07:58;;;;;;;43.58;31.73;;;24.00;84.30;;;;;;1858885;77;21669;-71
2021/12/24 02:10:29;;;;;;;42.50;31.30;;;24.00;84.30;;;;;;1858067;77;21148;-71
2021/12/24 02:13:00;;;;;;;47.70;34.33;;;24.10;84.50;;;;;;1862632;75;21159;-71
2021/12/24 02:28:27;;;;;;;45.43;31.73;;;24.40;84.70;;;;;;1857006;75;21124;-71
2021/12/24 02:30:45;;;;;;;46.75;32.28;;;24.40;84.30;;;;;;1863683;74;21151;-71
2021/12/24 02:33:16;;;;;;;45.17;31.70;;;24.50;84.50;;;;;;1863027;75;21144;-71
2021/12/24 02:35:48;;;;;;;48.40;32.90;;;24.50;84.70;;;;;;1846300;76;21093;-70
2021/12/24 02:38:19;;;;;;;48.45;33.02;;;24.60;84.90;;;;;;1856757;76;21229;-69
2021/12/24 02:40:51;;;;;;;52.13;34.85;;;24.60;83.90;;;;;;1881505;75;21080;-70
2021/12/24 02:43:24;;;;;;;44.88;32.25;;;24.70;84.10;;;;;;1869135;76;21663;-70
2021/12/24 02:46:07;;;;;;;42.93;31.02;;;24.70;83.20;;;;;;1869868;76;21171;-71
2021/12/24 02:56:04;;;;;;;45.60;34.40;;;25.00;83.30;;;;;;1875601;75;21640;-70
2021/12/24 02:58:39;;;;;;;47.05;33.90;;;25.00;83.40;;;;;;1881191;75;21362;-69
2021/12/24 03:01:13;;;;;;;50.63;34.88;;;25.00;82.30;;;;;;1884618;75;21674;-70
2021/12/24 03:03:48;;;;;;;39.95;30.02;;;25.10;83.20;;;;;;1874762;75;21155;-68
2021/12/24 03:06:19;;;;;;;46.68;33.25;;;25.10;83.00;;;;;;1875811;75;21147;-70
2021/12/24 03:08:50;;;;;;;49.95;32.67;;;25.10;82.90;;;;;;1872768;76;21201;-69
2021/12/24 03:11:21;;;;;;;47.08;31.20;;;25.10;83.20;;;;;;1873261;75;21619;-70
2021/12/24 03:13:56;;;;;;;47.75;33.50;;;25.20;83.00;;;;;;1874137;75;21208;-70
2021/12/24 03:16:27;;;;;;;46.33;31.87;;;25.20;82.40;;;;;;1871778;76;21142;-70
2021/12/24 03:18:59;;;;;;;46.33;32.03;;;25.30;82.90;;;;;;1874199;76;21193;-69
2021/12/24 03:21:37;;;;;;;44.05;30.60;;;25.30;82.70;;;;;;1880334;75;21665;-70
2021/12/24 03:26:35;;;;;;;40.67;30.85;;;25.40;82.70;;;;;;1872060;76;21494;-70
2021/12/24 03:29:08;;;;;;;45.43;31.27;;;25.50;82.40;;;;;;1856735;75;21603;-70
2021/12/24 03:31:40;;;;;;;42.38;31.05;;;25.60;82.00;;;;;;1878642;75;21174;-70
2021/12/24 03:34:13;;;;;;;40.88;29.52;;;25.80;82.10;;;;;;1884321;75;21155;-69
2021/12/24 03:36:44;;;;;;;39.45;28.83;;;25.80;81.80;;;;;;1875830;75;21566;-70
2021/12/24 03:39:16;;;;;;;41.73;29.07;;;25.90;81.40;;;;;;1874298;75;21204;-69
2021/12/24 03:41:48;;;;;;;36.13;28.15;;;25.90;81.80;;;;;;1880141;75;21646;-72
2021/12/24 03:44:19;;;;;;;40.70;28.60;;;26.00;81.40;;;;;;1880008;75;21096;-70
2021/12/24 03:46:59;;;;;;;37.45;28.02;;;26.10;81.00;;;;;;1869417;75;21071;-69
2021/12/24 03:50:01;;;;;;;37.42;27.22;;;26.20;80.90;;;;;;1870357;75;21619;-69
2021/12/24 03:56:58;;;;;;;34.40;25.10;;;26.40;80.20;;;;;;1878336;75;21767;-69
2021/12/24 03:59:29;;;;;;;31.07;25.15;;;26.50;79.80;;;;;;1875800;75;21140;-70
2021/12/24 04:02:00;;;;;;;33.25;23.52;;;26.50;79.50;;;;;;1846035;76;21148;-69
2021/12/24 04:04:30;;;;;;;31.97;24.85;;;26.60;79.40;;;;;;1854380;76;21135;-68
2021/12/24 04:07:02;;;;;;;32.05;23.98;;;26.70;79.30;;;;;;1810942;77;21607;-70
2021/12/24 04:09:34;;;;;;;31.68;22.67;;;26.80;79.00;;;;;;1843428;76;21104;-69
2021/12/24 04:12:06;;;;;;;29.90;22.32;;;26.80;78.80;;;;;;1846049;76;21627;-70
2021/12/24 04:14:37;;;;;;;32.40;22.35;;;26.90;78.70;;;;;;1807199;78;21245;-68
2021/12/24 04:17:08;;;;;;;28.47;23.52;;;27.00;78.40;;;;;;1813121;78;21663;-70
2021/12/24 04:24:54;;;;;;;28.00;22.45;;;27.50;77.30;;;;;;1852925;76;21175;-69
2021/12/24 04:27:15;;;;;;;26.68;20.77;;;27.50;76.70;;;;;;1849326;76;21147;-69
2021/12/24 04:29:46;;;;;;;30.65;22.65;;;27.60;76.60;;;;;;1852223;76;21163;-69
2021/12/24 04:32:24;;;;;;;28.07;21.37;;;27.70;76.60;;;;;;1850845;76;21728;-70
2021/12/24 04:34:51;;;;;;;38.75;23.10;;;27.80;75.80;;;;;;1861219;76;21246;-71
2021/12/24 04:51:01;;;;;;;25.60;19.27;;;28.00;75.50;;;;;;1802694;77;21226;-69
2021/12/24 04:52:57;;;;;;;27.37;16.32;;;28.40;73.00;;;;;;1879522;75;21221;-71
2021/12/24 05:03:02;;;;;;;19.57;13.88;;;28.50;72.50;;;;;;1870053;75;21194;-69
2021/12/24 05:10:28;;;;;;;19.23;14.03;;;28.80;71.50;;;;;;1872803;75;21697;-71
2021/12/24 05:12:55;;;;;;;22.32;15.35;;;28.90;70.40;;;;;;1870356;75;21171;-70
2021/12/24 05:15:27;;;;;;;17.62;13.90;;;29.00;70.50;;;;;;1866423;77;21093;-70
2021/12/24 05:23:02;;;;;;;18.82;13.20;;;29.10;70.20;;;;;;1876846;75;21634;-70
2021/12/24 05:25:33;;;;;;;19.48;12.88;;;29.30;68.80;;;;;;1880563;75;21618;-70
2021/12/24 05:28:06;;;;;;;18.40;12.60;;;29.40;66.90;;;;;;1896799;75;21157;-71
2021/12/24 05:30:37;;;;;;;16.65;13.05;;;29.50;67.60;;;;;;1881654;75;21647;-71
2021/12/24 05:33:12;;;;;;;17.82;12.00;;;29.70;67.50;;;;;;1873150;76;21123;-71
2021/12/24 05:35:41;;;;;;;17.73;12.55;;;29.80;65.80;;;;;;1848910;77;21636;-72
2021/12/24 05:38:14;;;;;;;15.75;13.13;;;29.80;65.70;;;;;;1895819;75;21619;-70
2021/12/24 05:40:45;;;;;;;20.80;13.18;;;29.90;65.00;;;;;;1879933;75;21088;-71
2021/12/24 05:43:18;;;;;;;18.15;13.00;;;30.00;64.90;;;;;;1866457;76;21525;-70
2021/12/24 05:45:49;;;;;;;17.15;12.43;;;30.00;64.90;;;;;;1865256;77;21608;-70
2021/12/24 05:48:20;;;;;;;15.53;12.28;;;30.00;63.90;;;;;;1886753;75;21092;-70
2021/12/24 05:50:51;;;;;;;15.13;11.97;;;30.10;64.40;;;;;;1859935;75;21104;-70
2021/12/24 05:53:22;;;;;;;12.90;9.98;;;30.10;63.10;;;;;;1867600;75;21144;-69
2021/12/24 05:55:53;;;;;;;19.32;12.90;;;30.20;61.20;;;;;;1869673;75;21174;-70
2021/12/24 05:58:25;;;;;;;17.00;12.75;;;30.20;62.10;;;;;;1865601;77;21612;-73
2021/12/24 06:00:56;;;;;;;16.97;12.33;;;30.20;62.00;;;;;;1854657;77;21178;-71
2021/12/24 06:03:27;;;;;;;17.57;11.68;;;30.20;62.60;;;;;;1867625;75;21070;-71
2021/12/24 06:05:58;;;;;;;17.55;11.63;;;30.20;61.90;;;;;;1820677;78;21151;-69
2021/12/24 06:08:28;;;;;;;15.65;11.68;;;30.20;61.80;;;;;;1852247;77;21611;-70
2021/12/24 06:10:59;;;;;;;19.35;12.40;;;30.20;61.70;;;;;;1851469;77;21064;-70
2021/12/24 06:13:36;;;;;;;17.10;11.33;;;30.20;62.00;;;;;;1851987;77;21092;-68
2021/12/24 06:16:02;;;;;;;14.63;11.20;;;30.30;62.80;;;;;;1861716;76;21168;-71
2021/12/24 06:18:35;;;;;;;19.00;13.35;;;30.30;62.40;;;;;;1865704;75;21163;-70
2021/12/24 06:21:06;;;;;;;17.15;14.28;;;30.30;62.60;;;;;;1866918;76;22426;-70
2021/12/24 06:23:39;;;;;;;18.30;13.95;;;30.30;63.20;;;;;;1869503;77;21788;-71
2021/12/24 06:26:12;;;;;;;19.82;14.83;;;30.30;63.70;;;;;;1869749;77;21132;-69
2021/12/24 06:28:47;;;;;;;22.98;15.15;;;30.20;63.30;;;;;;1868761;77;21183;-69
2021/12/24 06:31:17;;;;;;;19.98;15.28;;;30.20;63.50;;;;;;1867415;76;21529;-70
2021/12/24 06:33:52;;;;;;;24.05;16.25;;;30.20;63.80;;;;;;1867411;76;21117;-71
2021/12/24 06:36:23;;;;;;;19.73;15.30;;;30.20;64.00;;;;;;1865258;76;21173;-70
2021/12/24 06:38:57;;;;;;;18.48;15.38;;;30.20;62.70;;;;;;1853357;77;21128;-70
2021/12/24 06:41:27;;;;;;;21.30;15.15;;;30.20;63.10;;;;;;1887249;73;21179;-69
2021/12/24 06:43:58;;;;;;;21.40;15.35;;;30.20;63.10;;;;;;1914131;75;21199;-69
2021/12/24 06:46:29;;;;;;;19.55;14.35;;;30.20;63.20;;;;;;1914366;75;21560;-70
2021/12/24 06:49:05;;;;;;;19.35;14.30;;;30.30;62.60;;;;;;1921620;74;21552;-71
2021/12/24 06:51:38;;;;;;;18.05;13.90;;;30.20;61.40;;;;;;1922472;73;21540;-71
2021/12/24 06:54:11;;;;;;;21.23;15.55;;;30.20;61.20;;;;;;1915884;75;21172;-70
2021/12/24 06:56:43;;;;;;;23.27;17.30;;;30.20;61.20;;;;;;1913365;75;21593;-69
2021/12/24 06:59:18;;;;;;;22.70;16.75;;;30.20;61.90;;;;;;1870777;76;21265;-70
2021/12/24 07:01:49;;;;;;;20.45;14.90;;;30.00;62.30;;;;;;1842804;78;21159;-71
2021/12/24 07:04:28;;;;;;;18.85;15.35;;;29.90;62.60;;;;;;1852843;75;21139;-70
2021/12/24 07:06:56;;;;;;;20.00;15.28;;;29.90;62.60;;;;;;1873917;76;21080;-69
2021/12/24 07:09:28;;;;;;;23.87;15.45;;;29.90;62.50;;;;;;1880221;76;21782;-70
2021/12/24 07:11:59;;;;;;;19.92;15.75;;;29.80;62.40;;;;;;1881263;75;21666;-70
2021/12/24 07:14:36;;;;;;;24.95;16.87;;;29.90;62.10;;;;;;1885610;75;21772;-70
2021/12/24 07:17:06;;;;;;;20.62;15.50;;;29.90;61.90;;;;;;1882249;74;21209;-70
2021/12/24 07:19:38;;;;;;;28.57;16.95;;;29.80;61.90;;;;;;1929412;74;21082;-72
2021/12/24 07:22:13;;;;;;;28.40;15.80;;;29.70;61.60;;;;;;1929079;74;22229;-70
2021/12/24 07:24:44;;;;;;;21.73;14.93;;;29.60;61.60;;;;;;1917733;74;21246;-70
2021/12/24 07:27:17;;;;;;;20.48;15.75;;;29.50;61.80;;;;;;1914459;75;21150;-70
2021/12/24 07:29:48;;;;;;;24.67;19.05;;;29.40;61.80;;;;;;1913790;75;21804;-70
2021/12/24 07:32:19;;;;;;;21.70;15.35;;;29.40;62.40;;;;;;1904178;75;21204;-70
2021/12/24 07:34:50;;;;;;;20.52;16.35;;;29.30;62.60;;;;;;1908916;74;21140;-70
2021/12/24 07:37:20;;;;;;;20.27;16.32;;;29.20;63.40;;;;;;1920430;74;21144;-70
2021/12/24 07:39:52;;;;;;;23.92;16.95;;;29.20;63.00;;;;;;1929561;74;21113;-71
2021/12/24 07:42:25;;;;;;;20.52;16.20;;;29.20;63.00;;;;;;1929868;74;21675;-70
2021/12/24 07:44:56;;;;;;;20.10;16.17;;;29.20;63.10;;;;;;1925208;74;21071;-71
2021/12/24 07:47:28;;;;;;;23.90;16.35;;;29.10;63.00;;;;;;1914412;75;21114;-71
2021/12/24 07:50:03;;;;;;;22.85;17.25;;;29.00;63.20;;;;;;1914606;75;21051;-71
2021/12/24 07:52:32;;;;;;;23.50;18.95;;;28.90;63.30;;;;;;1906190;75;21079;-71
2021/12/24 07:55:06;;;;;;;23.73;16.37;;;28.90;63.70;;;;;;1834918;78;21172;-71
2021/12/24 07:57:39;;;;;;;22.00;15.90;;;28.80;63.70;;;;;;1887722;75;21185;-70
2021/12/24 08:00:10;;;;;;;18.77;14.38;;;28.90;63.90;;;;;;1889576;76;21136;-70
2021/12/24 08:02:42;;;;;;;23.62;15.72;;;28.80;63.80;;;;;;1862253;76;21200;-70
2021/12/24 08:05:15;;;;;;;19.10;15.00;;;28.80;63.90;;;;;;1838746;77;21686;-72
2021/12/24 08:07:46;;;;;;;21.15;15.10;;;28.70;63.90;;;;;;1848437;76;21188;-72
2021/12/24 08:10:17;;;;;;;20.25;14.65;;;28.70;64.10;;;;;;1915061;75;21625;-71
2021/12/24 08:12:49;;;;;;;18.35;14.83;;;28.80;63.90;;;;;;1912442;75;21538;-69
2021/12/24 08:15:20;;;;;;;19.67;14.68;;;28.80;63.90;;;;;;1914215;75;21151;-70
2021/12/24 08:17:51;;;;;;;19.70;14.78;;;28.80;64.10;;;;;;1874670;76;21594;-70
2021/12/24 08:20:24;;;;;;;23.40;18.48;;;28.80;64.00;;;;;;1869146;76;21219;-70
2021/12/24 08:22:56;;;;;;;24.02;16.00;;;28.80;64.20;;;;;;1859701;76;21670;-70
2021/12/24 08:25:27;;;;;;;21.50;16.05;;;28.80;64.20;;;;;;1866723;76;21730;-70
2021/12/24 08:27:58;;;;;;;19.00;14.55;;;28.80;64.40;;;;;;1860192;76;21525;-71
2021/12/24 08:30:29;;;;;;;19.52;15.10;;;28.80;64.10;;;;;;1873015;75;21560;-70
2021/12/24 08:33:01;;;;;;;17.10;14.28;;;28.70;63.90;;;;;;1821265;78;21640;-71
2021/12/24 08:35:32;;;;;;;18.00;15.32;;;28.80;64.20;;;;;;1869485;76;21716;-71
2021/12/24 08:38:03;;;;;;;17.95;14.10;;;28.70;63.90;;;;;;1871098;76;21750;-70
2021/12/24 08:40:34;;;;;;;19.82;15.28;;;28.70;64.00;;;;;;1874576;76;21179;-71
2021/12/24 08:43:04;;;;;;;19.02;13.72;;;28.70;64.10;;;;;;1870041;75;21559;-70
2021/12/24 08:45:35;;;;;;;18.15;15.13;;;28.70;64.10;;;;;;1855751;76;21264;-68
2021/12/24 08:48:06;;;;;;;23.22;15.63;;;28.70;64.10;;;;;;1886288;75;21208;-70
2021/12/24 08:50:37;;;;;;;20.02;15.72;;;28.70;64.00;;;;;;1890277;75;21127;-69
2021/12/24 08:53:09;;;;;;;22.02;15.18;;;28.70;63.90;;;;;;1883784;76;21085;-71
2021/12/24 08:55:40;;;;;;;18.17;14.45;;;28.70;63.90;;;;;;1883803;76;21167;-70
2021/12/24 08:58:11;;;;;;;17.77;14.23;;;28.70;64.70;;;;;;1883759;76;21151;-70
2021/12/24 09:00:41;;;;;;;18.17;13.35;;;28.70;63.40;;;;;;1913640;75;21052;-70
2021/12/24 09:03:12;;;;;;;18.77;13.20;;;28.70;63.30;;;;;;1917460;75;21055;-70
2021/12/24 09:05:44;;;;;;;15.98;12.90;;;28.80;63.40;;;;;;1915107;75;21151;-71
2021/12/24 09:08:15;;;;;;;18.17;13.13;;;28.80;63.40;;;;;;1915060;74;21139;-70
2021/12/24 09:10:45;;;;;;;18.82;12.35;;;28.70;63.20;;;;;;1911335;75;21181;-69
2021/12/24 09:13:17;;;;;;;20.08;13.78;;;28.70;63.60;;;;;;1912250;75;21071;-70
2021/12/24 09:15:48;;;;;;;19.00;12.55;;;28.70;63.40;;;;;;1918021;75;21131;-70
2021/12/24 09:18:19;;;;;;;24.37;14.33;;;28.70;63.40;;;;;;1906773;74;21063;-70
2021/12/24 09:20:50;;;;;;;23.90;14.58;;;28.70;63.40;;;;;;1915515;74;21107;-69
2021/12/24 09:23:22;;;;;;;21.52;14.47;;;28.70;63.60;;;;;;1882923;75;21218;-79
2021/12/24 09:25:54;;;;;;;20.57;14.23;;;28.70;63.60;;;;;;1919623;74;21192;-79
2021/12/24 09:28:25;;;;;;;22.42;16.37;;;28.60;63.40;;;;;;1913831;75;21642;-79
2021/12/24 09:30:56;;;;;;;20.85;13.00;;;28.60;63.20;;;;;;1888561;75;21595;-79
2021/12/24 09:33:27;;;;;;;16.55;12.82;;;28.60;63.10;;;;;;1914834;74;22016;-78
2021/12/24 09:35:58;;;;;;;20.27;13.10;;;28.60;63.20;;;;;;1912405;75;21127;-79
2021/12/24 09:38:29;;;;;;;20.08;13.20;;;28.70;63.00;;;;;;1916306;74;21130;-79
2021/12/24 09:40:59;;;;;;;24.45;13.22;;;28.70;62.80;;;;;;1917800;74;21123;-79
2021/12/24 09:43:30;;;;;;;20.12;14.23;;;28.70;62.50;;;;;;1878486;76;21130;-79
2021/12/24 09:46:01;;;;;;;17.85;12.23;;;28.70;62.70;;;;;;1878227;76;21154;-78
2021/12/24 09:48:32;;;;;;;19.17;13.05;;;28.70;63.50;;;;;;1919473;74;22089;-79
2021/12/24 09:51:03;;;;;;;15.85;11.43;;;28.70;62.50;;;;;;1918052;75;21615;-78
2021/12/24 09:53:36;;;;;;;17.17;11.68;;;28.80;62.40;;;;;;1898947;75;21103;-80
2021/12/24 09:56:10;;;;;;;16.97;10.90;;;28.80;62.50;;;;;;1879585;76;21144;-79
2021/12/24 09:58:42;;;;;;;14.50;11.57;;;28.80;62.40;;;;;;1917594;75;21666;-79
2021/12/24 10:01:15;;;;;;;13.18;10.08;;;28.70;62.30;;;;;;1877968;76;21155;-78
2021/12/24 10:03:48;;;;;;;15.35;10.58;;;28.70;61.90;;;;;;1913868;74;21248;-78
2021/12/24 10:06:19;;;;;;;16.00;12.03;;;28.70;62.10;;;;;;1883611;76;21060;-79
2021/12/24 10:08:52;;;;;;;19.52;11.08;;;28.70;62.30;;;;;;1899746;75;21130;-79
2021/12/24 10:11:28;;;;;;;17.07;12.43;;;28.70;62.30;;;;;;1879890;75;21166;-79
2021/12/24 10:13:58;;;;;;;16.73;12.50;;;28.70;62.50;;;;;;1919464;74;21177;-80
2021/12/24 10:16:30;;;;;;;15.90;11.73;;;28.60;62.70;;;;;;1876251;75;21190;-79
2021/12/24 10:19:03;;;;;;;18.48;11.83;;;28.60;62.80;;;;;;1908287;73;21080;-80
2021/12/24 10:21:34;;;;;;;18.92;12.25;;;28.60;62.70;;;;;;1918258;75;22061;-80
2021/12/24 10:24:08;;;;;;;12.93;10.75;;;28.60;62.70;;;;;;1918659;75;21139;-78
2021/12/24 10:26:41;;;;;;;15.58;11.05;;;28.50;62.70;;;;;;1871724;75;21188;-78
2021/12/24 10:29:14;;;;;;;21.25;11.83;;;28.50;63.00;;;;;;1893465;75;21208;-79
2021/12/24 10:31:44;;;;;;;21.77;15.05;;;28.50;63.10;;;;;;1878498;76;21119;-80
2021/12/24 10:34:14;;;;;;;17.92;11.90;;;28.50;63.20;;;;;;1916967;75;21618;-79
2021/12/24 10:36:47;;;;;;;18.60;13.80;;;28.50;63.20;;;;;;1913033;75;21049;-78
2021/12/24 10:39:19;;;;;;;22.32;14.43;;;28.40;63.30;;;;;;1878176;75;21629;-78
2021/12/24 10:41:52;;;;;;;23.12;13.95;;;28.40;63.40;;;;;;1918384;75;21102;-78
2021/12/24 10:44:25;;;;;;;35.78;19.75;;;28.40;63.60;;;;;;1918458;75;21138;-78
2021/12/24 10:46:58;;;;;;;20.40;14.55;;;28.40;63.90;;;;;;1911616;73;21210;-78
2021/12/24 10:54:40;;;;;;;21.07;14.15;;;28.30;64.10;;;;;;1862858;76;21633;-78
2021/12/24 10:57:13;;;;;;;22.20;14.33;;;28.20;64.20;;;;;;1882648;76;21112;-78
2021/12/24 10:59:48;;;;;;;25.75;14.68;;;28.20;64.50;;;;;;1879110;75;21083;-79
2021/12/24 11:02:19;;;;;;;24.32;15.43;;;28.20;64.80;;;;;;1870102;77;21606;-78
2021/12/24 11:04:53;;;;;;;22.10;16.77;;;28.20;64.90;;;;;;1870038;77;21192;-79
2021/12/24 11:07:26;;;;;;;25.35;17.85;;;28.20;64.90;;;;;;1859356;76;21103;-79
2021/12/24 11:09:59;;;;;;;23.95;17.05;;;28.20;65.00;;;;;;1825610;78;21970;-79
2021/12/24 11:12:32;;;;;;;25.97;17.12;;;28.10;65.30;;;;;;1862259;76;21202;-78
2021/12/24 11:15:04;;;;;;;27.35;17.57;;;28.10;65.30;;;;;;1845279;76;21157;-78
2021/12/24 11:17:38;;;;;;;26.70;17.77;;;28.10;65.50;;;;;;1852745;75;21208;-79
2021/12/24 11:20:11;;;;;;;29.00;18.77;;;28.10;65.70;;;;;;1887557;75;21566;-78
2021/12/24 11:22:45;;;;;;;26.90;19.92;;;28.10;65.80;;;;;;1858310;76;21144;-79
2021/12/24 11:25:16;;;;;;;28.80;20.02;;;28.00;66.00;;;;;;1867011;76;21135;-80
2021/12/24 11:27:47;;;;;;;31.97;20.52;;;28.00;66.20;;;;;;1869021;77;21151;-78
2021/12/24 11:30:21;;;;;;;29.42;20.95;;;28.00;66.40;;;;;;1875237;75;21138;-78
2021/12/24 11:32:54;;;;;;;29.35;19.73;;;28.00;66.60;;;;;;1831500;77;21254;-78
2021/12/24 11:35:26;;;;;;;30.62;21.55;;;28.00;66.80;;;;;;1854790;76;21438;-79
2021/12/24 11:37:59;;;;;;;32.50;20.97;;;27.90;67.00;;;;;;1858392;75;21173;-78
2021/12/24 11:40:32;;;;;;;28.57;20.32;;;27.90;67.20;;;;;;1861741;76;21686;-79
2021/12/24 11:43:04;;;;;;;30.40;20.02;;;27.90;67.50;;;;;;1821961;78;21596;-78
2021/12/24 11:45:35;;;;;;;32.00;20.92;;;27.90;67.60;;;;;;1864139;76;21124;-79
2021/12/24 11:48:07;;;;;;;34.18;21.70;;;27.80;67.70;;;;;;1875529;75;21619;-78
2021/12/24 11:50:38;;;;;;;30.30;21.00;;;27.80;67.70;;;;;;1915345;74;21128;-78
2021/12/24 11:53:12;;;;;;;34.53;22.20;;;27.80;67.80;;;;;;1909196;74;21116;-78
2021/12/24 11:55:48;;;;;;;35.88;23.27;;;27.80;67.90;;;;;;1905292;75;21183;-79
2021/12/24 11:58:20;;;;;;;36.00;22.95;;;27.70;68.00;;;;;;1906031;75;21213;-79
2021/12/24 12:00:53;;;;;;;42.00;25.60;;;27.70;68.30;;;;;;1912062;75;21127;-79
2021/12/24 12:03:26;;;;;;;40.33;25.57;;;27.70;68.70;;;;;;1910569;75;21693;-79
2021/12/24 12:05:57;;;;;;;39.40;26.33;;;27.70;68.70;;;;;;1906066;75;21064;-79
2021/12/24 12:08:28;;;;;;;42.62;25.02;;;27.70;68.70;;;;;;1910269;74;21123;-78
2021/12/24 12:11:02;;;;;;;38.13;25.52;;;27.70;69.00;;;;;;1918738;74;21154;-78
2021/12/24 12:13:35;;;;;;;36.98;25.55;;;27.60;68.80;;;;;;1908584;75;21834;-79
2021/12/24 12:16:08;;;;;;;38.88;25.32;;;27.60;68.60;;;;;;1899216;75;21560;-79
2021/12/24 12:18:45;;;;;;;37.58;26.07;;;27.60;68.70;;;;;;1900346;75;21201;-79
2021/12/24 12:21:15;;;;;;;38.95;25.82;;;27.50;68.80;;;;;;1908954;75;21267;-79
2021/12/24 12:26:23;;;;;;;35.63;25.23;;;27.50;68.90;;;;;;1904800;75;21063;-79
2021/12/24 12:28:56;;;;;;;37.83;26.15;;;27.50;69.00;;;;;;1909187;74;21144;-78
2021/12/24 12:31:28;;;;;;;40.10;25.68;;;27.50;68.90;;;;;;1909266;74;21154;-79
2021/12/24 12:34:02;;;;;;;37.28;24.90;;;27.50;69.00;;;;;;1914413;75;21665;-79
2021/12/24 12:36:34;;;;;;;40.90;26.50;;;27.50;69.50;;;;;;1914324;73;21130;-79
2021/12/24 12:39:08;;;;;;;37.28;26.62;;;27.40;69.10;;;;;;1914853;74;21175;-79
2021/12/24 12:41:40;;;;;;;43.87;25.85;;;27.40;69.20;;;;;;1911000;74;21147;-79
2021/12/24 12:44:15;;;;;;;36.73;25.80;;;27.40;69.20;;;;;;1911878;74;21116;-79
2021/12/24 12:46:48;;;;;;;42.25;27.42;;;27.40;69.30;;;;;;1913944;75;21724;-78
2021/12/24 12:49:20;;;;;;;42.35;26.95;;;27.40;69.40;;;;;;1914381;74;21115;-79
2021/12/24 12:51:52;;;;;;;37.78;26.33;;;27.40;69.60;;;;;;1911357;75;21581;-79
2021/12/24 12:54:26;;;;;;;34.50;25.65;;;27.40;69.70;;;;;;1884799;75;21665;-78
2021/12/24 12:57:00;;;;;;;39.03;26.07;;;27.40;69.70;;;;;;1868594;75;21179;-79
2021/12/24 12:59:30;;;;;;;40.05;25.75;;;27.40;69.70;;;;;;1836737;77;21647;-79
2021/12/24 13:02:02;;;;;;;35.90;25.35;;;27.30;70.60;;;;;;1874134;76;21569;-82
2021/12/24 13:04:33;;;;;;;38.35;26.52;;;27.30;69.90;;;;;;1884500;76;21148;-79
2021/12/24 13:07:04;;;;;;;39.50;26.40;;;27.30;70.20;;;;;;1880347;75;21148;-78
2021/12/24 13:09:35;;;;;;;36.38;26.85;;;27.30;70.20;;;;;;1836956;78;21184;-78
2021/12/24 13:12:07;;;;;;;42.03;26.35;;;27.20;70.20;;;;;;1874852;75;21156;-79
2021/12/24 13:14:38;;;;;;;36.35;26.55;;;27.30;70.40;;;;;;1880254;76;21120;-79
2021/12/24 13:24:50;;;;;;;46.42;28.67;;;27.20;70.50;;;;;;1910128;75;21633;-79
2021/12/24 13:27:24;;;;;;;44.98;29.02;;;27.20;70.80;;;;;;1877575;76;21595;-79
2021/12/24 13:29:58;;;;;;;48.45;29.27;;;27.20;70.70;;;;;;1884820;75;21116;-78
2021/12/24 13:32:29;;;;;;;46.92;29.00;;;27.20;70.60;;;;;;1910664;75;21139;-79
2021/12/24 13:35:01;;;;;;;39.45;26.73;;;27.20;70.50;;;;;;1907649;74;21250;-78
2021/12/24 13:37:34;;;;;;;38.95;28.30;;;27.20;70.50;;;;;;1885255;75;21143;-78
2021/12/24 13:40:08;;;;;;;43.10;28.42;;;27.10;70.40;;;;;;1884166;75;22033;-74
2021/12/24 13:42:41;;;;;;;41.88;25.82;;;27.10;70.30;;;;;;1912032;75;21124;-76
2021/12/24 13:45:12;;;;;;;40.75;27.32;;;27.10;70.20;;;;;;1910557;75;21139;-77
2021/12/24 13:47:54;;;;;;;41.75;26.77;;;27.10;70.30;;;;;;1914287;75;21072;-78
2021/12/24 13:55:23;;;;;;;42.23;26.77;;;27.10;70.30;;;;;;1914381;74;21583;-78
2021/12/24 13:57:56;;;;;;;42.23;27.05;;;27.10;70.30;;;;;;1915896;74;21107;-78
2021/12/24 14:00:29;;;;;;;40.38;26.48;;;27.10;70.30;;;;;;1918565;74;21170;-77
2021/12/24 14:03:03;;;;;;;38.48;26.95;;;27.10;70.40;;;;;;1915751;74;21670;-78
2021/12/24 14:05:35;;;;;;;36.63;25.77;;;27.00;70.40;;;;;;1917249;74;21088;-78
2021/12/24 14:08:09;;;;;;;37.13;26.48;;;27.00;70.40;;;;;;1918461;74;22244;-78
2021/12/24 14:10:41;;;;;;;41.40;26.93;;;27.00;70.50;;;;;;1918251;74;21139;-78
2021/12/24 14:13:23;;;;;;;38.70;26.00;;;27.00;70.60;;;;;;1845150;78;21190;-78
2021/12/24 14:16:01;;;;;;;41.30;25.80;;;27.00;70.60;;;;;;1916586;74;21177;-79
2021/12/24 14:18:30;;;;;;;37.78;26.25;;;27.00;70.60;;;;;;1913630;74;21188;-78
2021/12/24 14:21:44;;;;;;;41.00;25.88;;;27.00;70.60;;;;;;1844509;78;21143;-78
2021/12/24 14:23:27;;;;;;;35.83;24.60;;;27.00;70.80;;;;;;1910575;74;21151;-78
2021/12/24 14:25:59;;;;;;;40.12;25.15;;;27.00;70.70;;;;;;1845142;77;21170;-78
2021/12/24 14:28:31;;;;;;;40.48;25.10;;;26.90;70.60;;;;;;1916720;74;21812;-78
2021/12/24 14:31:04;;;;;;;40.45;25.30;;;26.90;70.70;;;;;;1846761;78;21620;-79
2021/12/24 14:33:36;;;;;;;43.83;26.87;;;26.90;70.70;;;;;;1846387;77;21229;-78
2021/12/24 14:36:09;;;;;;;39.10;25.65;;;26.90;70.80;;;;;;1846650;78;21170;-78
2021/12/24 14:38:40;;;;;;;34.70;26.10;;;26.90;70.80;;;;;;1915591;74;21528;-78
2021/12/24 14:41:13;;;;;;;35.00;25.00;;;26.90;70.80;;;;;;1847764;78;21135;-78
2021/12/24 14:43:44;;;;;;;38.90;26.10;;;26.90;71.10;;;;;;1848296;77;21123;-78
2021/12/24 14:46:15;;;;;;;34.33;25.08;;;26.80;71.10;;;;;;1847846;77;21107;-78
2021/12/24 14:48:46;;;;;;;34.10;24.75;;;26.80;71.20;;;;;;1877406;76;21152;-78
2021/12/24 14:51:16;;;;;;;36.15;25.32;;;26.80;71.30;;;;;;1892559;75;21143;-78
2021/12/24 14:53:48;;;;;;;45.15;25.70;;;26.80;71.30;;;;;;1829454;77;21713;-78